sensor_id;sensor_type;location;lat;lon;timestamp;P1;durP1;ratioP1;P2;durP2;ratioP2
39370;SDS011;25099;51.946;4.838;2023-09-12T00:01:32;48.08;;;35.30;;
39370;SDS011;25099;51.946;4.838;2023-09-12T00:03:58;49.50;;;37.25;;
39370;SDS011;25099;51.946;4.838;2023-09-12T00:06:24;52.45;;;37.42;;
39370;SDS011;25099;51.946;4.838;2023-09-12T00:08:51;52.28;;;37.33;;
39370;SDS011;25099;51.946;4.838;2023-09-12T00:11:17;48.47;;;35.67;;
39370;SDS011;25099;51.946;4.838;2023-09-12T00:13:43;54.10;;;38.28;;
39370;SDS011;25099;51.946;4.838;2023-09-12T00:16:09;45.00;;;34.83;;
39370;SDS011;25099;51.946;4.838;2023-09-12T00:18:35;47.72;;;34.85;;
39370;SDS011;25099;51.946;4.838;2023-09-12T00:21:04;48.72;;;35.00;;
39370;SDS011;25099;51.946;4.838;2023-09-12T00:23:30;52.33;;;37.35;;
39370;SDS011;25099;51.946;4.838;2023-09-12T00:25:57;48.25;;;34.72;;
39370;SDS011;25099;51.946;4.838;2023-09-12T00:28:22;51.22;;;35.88;;
39370;SDS011;25099;51.946;4.838;2023-09-12T00:30:49;49.70;;;34.63;;
39370;SDS011;25099;51.946;4.838;2023-09-12T00:33:14;49.88;;;35.47;;
39370;SDS011;25099;51.946;4.838;2023-09-12T00:35:40;48.55;;;36.83;;
39370;SDS011;25099;51.946;4.838;2023-09-12T00:38:08;48.30;;;34.08;;
39370;SDS011;25099;51.946;4.838;2023-09-12T00:40:34;46.10;;;33.83;;
39370;SDS011;25099;51.946;4.838;2023-09-12T00:42:59;45.97;;;32.85;;
39370;SDS011;25099;51.946;4.838;2023-09-12T00:45:25;46.05;;;32.75;;
39370;SDS011;25099;51.946;4.838;2023-09-12T00:47:51;46.33;;;33.67;;
39370;SDS011;25099;51.946;4.838;2023-09-12T00:50:18;44.38;;;31.42;;
39370;SDS011;25099;51.946;4.838;2023-09-12T00:52:45;38.40;;;31.42;;
39370;SDS011;25099;51.946;4.838;2023-09-12T00:55:12;44.25;;;31.67;;
39370;SDS011;25099;51.946;4.838;2023-09-12T00:57:38;47.88;;;32.40;;
39370;SDS011;25099;51.946;4.838;2023-09-12T01:00:04;39.70;;;29.25;;
39370;SDS011;25099;51.946;4.838;2023-09-12T01:02:36;38.92;;;30.88;;
39370;SDS011;25099;51.946;4.838;2023-09-12T01:05:03;44.60;;;29.88;;
39370;SDS011;25099;51.946;4.838;2023-09-12T01:07:30;40.22;;;28.52;;
39370;SDS011;25099;51.946;4.838;2023-09-12T01:09:55;39.30;;;29.67;;
39370;SDS011;25099;51.946;4.838;2023-09-12T01:12:21;38.80;;;28.58;;
39370;SDS011;25099;51.946;4.838;2023-09-12T01:14:47;40.25;;;28.88;;
39370;SDS011;25099;51.946;4.838;2023-09-12T01:17:13;40.58;;;29.23;;
39370;SDS011;25099;51.946;4.838;2023-09-12T01:19:39;38.42;;;28.63;;
39370;SDS011;25099;51.946;4.838;2023-09-12T01:25:08;39.22;;;27.88;;
39370;SDS011;25099;51.946;4.838;2023-09-12T01:27:37;44.13;;;29.65;;
39370;SDS011;25099;51.946;4.838;2023-09-12T01:30:08;38.70;;;27.90;;
39370;SDS011;25099;51.946;4.838;2023-09-12T01:32:35;31.30;;;24.83;;
39370;SDS011;25099;51.946;4.838;2023-09-12T01:35:02;27.35;;;24.05;;
39370;SDS011;25099;51.946;4.838;2023-09-12T01:37:31;32.85;;;25.40;;
39370;SDS011;25099;51.946;4.838;2023-09-12T01:39:57;29.55;;;24.83;;
39370;SDS011;25099;51.946;4.838;2023-09-12T01:42:23;30.38;;;24.58;;
39370;SDS011;25099;51.946;4.838;2023-09-12T01:44:54;31.52;;;25.55;;
39370;SDS011;25099;51.946;4.838;2023-09-12T01:47:21;32.03;;;25.17;;
39370;SDS011;25099;51.946;4.838;2023-09-12T01:49:49;32.55;;;26.00;;
39370;SDS011;25099;51.946;4.838;2023-09-12T01:52:18;32.58;;;24.95;;
39370;SDS011;25099;51.946;4.838;2023-09-12T01:54:45;39.40;;;25.85;;
39370;SDS011;25099;51.946;4.838;2023-09-12T01:57:12;33.28;;;24.33;;
39370;SDS011;25099;51.946;4.838;2023-09-12T01:59:38;30.65;;;24.33;;
39370;SDS011;25099;51.946;4.838;2023-09-12T02:02:04;26.15;;;22.75;;
39370;SDS011;25099;51.946;4.838;2023-09-12T02:04:30;30.45;;;23.45;;
39370;SDS011;25099;51.946;4.838;2023-09-12T02:06:55;25.98;;;22.27;;
39370;SDS011;25099;51.946;4.838;2023-09-12T02:09:23;27.88;;;23.55;;
39370;SDS011;25099;51.946;4.838;2023-09-12T02:11:49;26.70;;;22.67;;
39370;SDS011;25099;51.946;4.838;2023-09-12T02:14:15;29.73;;;25.35;;
39370;SDS011;25099;51.946;4.838;2023-09-12T02:16:42;32.65;;;26.23;;
39370;SDS011;25099;51.946;4.838;2023-09-12T02:19:08;32.08;;;25.10;;
39370;SDS011;25099;51.946;4.838;2023-09-12T02:21:34;32.17;;;24.05;;
39370;SDS011;25099;51.946;4.838;2023-09-12T02:23:59;33.33;;;26.88;;
39370;SDS011;25099;51.946;4.838;2023-09-12T02:26:25;33.38;;;25.85;;
39370;SDS011;25099;51.946;4.838;2023-09-12T02:28:51;34.50;;;26.58;;
39370;SDS011;25099;51.946;4.838;2023-09-12T02:31:16;35.17;;;25.90;;
39370;SDS011;25099;51.946;4.838;2023-09-12T02:33:42;33.42;;;25.42;;
39370;SDS011;25099;51.946;4.838;2023-09-12T02:36:07;34.90;;;26.85;;
39370;SDS011;25099;51.946;4.838;2023-09-12T02:38:33;34.83;;;25.73;;
39370;SDS011;25099;51.946;4.838;2023-09-12T02:40:59;30.83;;;23.67;;
39370;SDS011;25099;51.946;4.838;2023-09-12T02:43:24;29.50;;;23.67;;
39370;SDS011;25099;51.946;4.838;2023-09-12T02:45:50;28.52;;;21.73;;
39370;SDS011;25099;51.946;4.838;2023-09-12T02:48:15;27.42;;;21.60;;
39370;SDS011;25099;51.946;4.838;2023-09-12T02:50:41;30.17;;;21.85;;
39370;SDS011;25099;51.946;4.838;2023-09-12T02:53:07;28.33;;;22.23;;
39370;SDS011;25099;51.946;4.838;2023-09-12T02:55:32;28.77;;;23.00;;
39370;SDS011;25099;51.946;4.838;2023-09-12T02:57:58;35.47;;;23.38;;
39370;SDS011;25099;51.946;4.838;2023-09-12T03:00:23;30.67;;;22.42;;
39370;SDS011;25099;51.946;4.838;2023-09-12T03:02:49;30.85;;;22.83;;
39370;SDS011;25099;51.946;4.838;2023-09-12T03:05:15;28.70;;;21.95;;
39370;SDS011;25099;51.946;4.838;2023-09-12T03:07:41;31.48;;;23.55;;
39370;SDS011;25099;51.946;4.838;2023-09-12T03:10:06;32.00;;;23.58;;
39370;SDS011;25099;51.946;4.838;2023-09-12T03:12:32;34.53;;;22.60;;
39370;SDS011;25099;51.946;4.838;2023-09-12T03:14:58;36.08;;;24.10;;
39370;SDS011;25099;51.946;4.838;2023-09-12T03:17:23;32.38;;;23.45;;
39370;SDS011;25099;51.946;4.838;2023-09-12T03:19:49;31.27;;;24.55;;
39370;SDS011;25099;51.946;4.838;2023-09-12T03:22:15;32.20;;;24.45;;
39370;SDS011;25099;51.946;4.838;2023-09-12T03:24:40;30.50;;;23.70;;
39370;SDS011;25099;51.946;4.838;2023-09-12T03:27:06;30.55;;;24.35;;
39370;SDS011;25099;51.946;4.838;2023-09-12T03:29:32;30.95;;;24.77;;
39370;SDS011;25099;51.946;4.838;2023-09-12T03:31:58;31.27;;;24.88;;
39370;SDS011;25099;51.946;4.838;2023-09-12T03:34:24;28.88;;;23.35;;
39370;SDS011;25099;51.946;4.838;2023-09-12T03:36:49;27.40;;;23.15;;
39370;SDS011;25099;51.946;4.838;2023-09-12T03:39:15;30.92;;;23.90;;
39370;SDS011;25099;51.946;4.838;2023-09-12T03:41:40;29.98;;;23.25;;
39370;SDS011;25099;51.946;4.838;2023-09-12T03:44:07;28.17;;;21.33;;
39370;SDS011;25099;51.946;4.838;2023-09-12T03:46:33;24.70;;;21.02;;
39370;SDS011;25099;51.946;4.838;2023-09-12T03:48:58;28.40;;;21.55;;
39370;SDS011;25099;51.946;4.838;2023-09-12T03:51:24;34.38;;;23.90;;
39370;SDS011;25099;51.946;4.838;2023-09-12T03:53:49;25.63;;;22.00;;
39370;SDS011;25099;51.946;4.838;2023-09-12T03:56:15;32.30;;;23.77;;
39370;SDS011;25099;51.946;4.838;2023-09-12T03:58:41;30.30;;;23.02;;
39370;SDS011;25099;51.946;4.838;2023-09-12T04:01:07;31.95;;;23.02;;
39370;SDS011;25099;51.946;4.838;2023-09-12T04:03:32;34.90;;;23.73;;
39370;SDS011;25099;51.946;4.838;2023-09-12T04:05:58;31.77;;;23.55;;
39370;SDS011;25099;51.946;4.838;2023-09-12T04:08:24;30.67;;;23.60;;
39370;SDS011;25099;51.946;4.838;2023-09-12T04:10:49;33.13;;;24.48;;
39370;SDS011;25099;51.946;4.838;2023-09-12T04:13:15;35.97;;;25.05;;
39370;SDS011;25099;51.946;4.838;2023-09-12T04:15:41;34.58;;;24.83;;
39370;SDS011;25099;51.946;4.838;2023-09-12T04:18:06;35.40;;;25.73;;
39370;SDS011;25099;51.946;4.838;2023-09-12T04:20:32;31.65;;;24.25;;
39370;SDS011;25099;51.946;4.838;2023-09-12T04:23:00;36.70;;;26.10;;
39370;SDS011;25099;51.946;4.838;2023-09-12T04:25:27;36.83;;;26.20;;
39370;SDS011;25099;51.946;4.838;2023-09-12T04:27:53;39.22;;;26.40;;
39370;SDS011;25099;51.946;4.838;2023-09-12T04:30:19;41.30;;;27.15;;
39370;SDS011;25099;51.946;4.838;2023-09-12T04:32:44;35.05;;;26.83;;
39370;SDS011;25099;51.946;4.838;2023-09-12T04:35:10;34.65;;;26.13;;
39370;SDS011;25099;51.946;4.838;2023-09-12T04:37:36;37.03;;;26.48;;
39370;SDS011;25099;51.946;4.838;2023-09-12T04:40:02;37.90;;;27.10;;
39370;SDS011;25099;51.946;4.838;2023-09-12T04:42:30;39.80;;;27.48;;
39370;SDS011;25099;51.946;4.838;2023-09-12T04:44:55;37.92;;;29.80;;
39370;SDS011;25099;51.946;4.838;2023-09-12T04:47:21;40.05;;;28.27;;
39370;SDS011;25099;51.946;4.838;2023-09-12T04:49:47;38.00;;;27.80;;
39370;SDS011;25099;51.946;4.838;2023-09-12T04:52:12;38.75;;;27.65;;
39370;SDS011;25099;51.946;4.838;2023-09-12T04:54:38;38.55;;;27.73;;
39370;SDS011;25099;51.946;4.838;2023-09-12T04:57:04;33.33;;;26.00;;
39370;SDS011;25099;51.946;4.838;2023-09-12T04:59:29;37.47;;;26.88;;
39370;SDS011;25099;51.946;4.838;2023-09-12T05:01:55;38.03;;;25.98;;
39370;SDS011;25099;51.946;4.838;2023-09-12T05:04:20;40.72;;;26.63;;
39370;SDS011;25099;51.946;4.838;2023-09-12T05:06:46;33.47;;;25.63;;
39370;SDS011;25099;51.946;4.838;2023-09-12T05:09:12;35.40;;;26.35;;
39370;SDS011;25099;51.946;4.838;2023-09-12T05:11:38;32.58;;;26.52;;
39370;SDS011;25099;51.946;4.838;2023-09-12T05:14:03;37.03;;;26.27;;
39370;SDS011;25099;51.946;4.838;2023-09-12T05:16:29;34.47;;;25.38;;
39370;SDS011;25099;51.946;4.838;2023-09-12T05:18:55;39.20;;;27.58;;
39370;SDS011;25099;51.946;4.838;2023-09-12T05:21:21;36.38;;;26.90;;
39370;SDS011;25099;51.946;4.838;2023-09-12T05:23:46;40.20;;;28.05;;
39370;SDS011;25099;51.946;4.838;2023-09-12T05:26:12;42.03;;;28.00;;
39370;SDS011;25099;51.946;4.838;2023-09-12T05:28:38;44.22;;;28.60;;
39370;SDS011;25099;51.946;4.838;2023-09-12T05:31:04;40.92;;;27.45;;
39370;SDS011;25099;51.946;4.838;2023-09-12T05:33:29;46.42;;;28.35;;
39370;SDS011;25099;51.946;4.838;2023-09-12T05:35:55;42.40;;;27.55;;
39370;SDS011;25099;51.946;4.838;2023-09-12T05:38:20;46.10;;;26.52;;
39370;SDS011;25099;51.946;4.838;2023-09-12T05:40:46;45.72;;;28.10;;
39370;SDS011;25099;51.946;4.838;2023-09-12T05:43:15;43.05;;;29.83;;
39370;SDS011;25099;51.946;4.838;2023-09-12T05:45:42;51.92;;;31.55;;
39370;SDS011;25099;51.946;4.838;2023-09-12T05:48:08;56.70;;;31.35;;
39370;SDS011;25099;51.946;4.838;2023-09-12T05:50:34;55.85;;;33.53;;
39370;SDS011;25099;51.946;4.838;2023-09-12T05:53:01;56.58;;;31.60;;
39370;SDS011;25099;51.946;4.838;2023-09-12T05:55:27;50.63;;;30.95;;
39370;SDS011;25099;51.946;4.838;2023-09-12T05:57:53;57.28;;;32.55;;
39370;SDS011;25099;51.946;4.838;2023-09-12T06:00:19;56.50;;;33.13;;
39370;SDS011;25099;51.946;4.838;2023-09-12T06:02:46;51.58;;;32.72;;
39370;SDS011;25099;51.946;4.838;2023-09-12T06:05:12;60.88;;;34.95;;
39370;SDS011;25099;51.946;4.838;2023-09-12T06:07:37;57.90;;;34.50;;
39370;SDS011;25099;51.946;4.838;2023-09-12T06:10:05;58.70;;;35.35;;
39370;SDS011;25099;51.946;4.838;2023-09-12T06:12:33;67.80;;;36.92;;
39370;SDS011;25099;51.946;4.838;2023-09-12T06:15:01;60.10;;;33.95;;
39370;SDS011;25099;51.946;4.838;2023-09-12T06:17:27;56.70;;;33.97;;
39370;SDS011;25099;51.946;4.838;2023-09-12T06:19:54;53.63;;;33.80;;
39370;SDS011;25099;51.946;4.838;2023-09-12T06:22:20;59.28;;;36.55;;
39370;SDS011;25099;51.946;4.838;2023-09-12T06:24:47;56.53;;;33.75;;
39370;SDS011;25099;51.946;4.838;2023-09-12T06:27:14;59.45;;;34.10;;
39370;SDS011;25099;51.946;4.838;2023-09-12T06:29:46;55.92;;;35.28;;
39370;SDS011;25099;51.946;4.838;2023-09-12T06:32:13;54.65;;;33.83;;
39370;SDS011;25099;51.946;4.838;2023-09-12T06:34:40;64.07;;;36.58;;
39370;SDS011;25099;51.946;4.838;2023-09-12T06:37:05;58.13;;;36.65;;
39370;SDS011;25099;51.946;4.838;2023-09-12T06:39:31;67.35;;;37.22;;
39370;SDS011;25099;51.946;4.838;2023-09-12T06:41:57;66.78;;;36.95;;
39370;SDS011;25099;51.946;4.838;2023-09-12T06:44:22;61.30;;;36.97;;
39370;SDS011;25099;51.946;4.838;2023-09-12T06:46:48;60.88;;;36.25;;
39370;SDS011;25099;51.946;4.838;2023-09-12T06:49:25;72.88;;;39.03;;
39370;SDS011;25099;51.946;4.838;2023-09-12T06:51:53;65.20;;;37.33;;
39370;SDS011;25099;51.946;4.838;2023-09-12T06:54:19;66.32;;;36.33;;
39370;SDS011;25099;51.946;4.838;2023-09-12T06:56:45;63.92;;;36.85;;
39370;SDS011;25099;51.946;4.838;2023-09-12T06:59:10;69.43;;;40.53;;
39370;SDS011;25099;51.946;4.838;2023-09-12T07:01:36;64.05;;;37.63;;
39370;SDS011;25099;51.946;4.838;2023-09-12T07:04:02;65.25;;;38.80;;
39370;SDS011;25099;51.946;4.838;2023-09-12T07:06:28;69.68;;;38.92;;
39370;SDS011;25099;51.946;4.838;2023-09-12T07:08:53;69.10;;;37.33;;
39370;SDS011;25099;51.946;4.838;2023-09-12T07:11:19;69.18;;;39.63;;
39370;SDS011;25099;51.946;4.838;2023-09-12T07:13:44;76.78;;;40.03;;
39370;SDS011;25099;51.946;4.838;2023-09-12T07:16:11;72.78;;;40.90;;
39370;SDS011;25099;51.946;4.838;2023-09-12T07:18:37;75.50;;;40.75;;
39370;SDS011;25099;51.946;4.838;2023-09-12T07:21:03;71.93;;;41.28;;
39370;SDS011;25099;51.946;4.838;2023-09-12T07:23:30;72.60;;;41.42;;
39370;SDS011;25099;51.946;4.838;2023-09-12T07:25:57;67.38;;;39.53;;
39370;SDS011;25099;51.946;4.838;2023-09-12T07:28:23;66.57;;;38.33;;
39370;SDS011;25099;51.946;4.838;2023-09-12T07:30:49;72.18;;;40.90;;
39370;SDS011;25099;51.946;4.838;2023-09-12T07:33:15;66.05;;;37.15;;
39370;SDS011;25099;51.946;4.838;2023-09-12T07:35:40;73.65;;;39.10;;
39370;SDS011;25099;51.946;4.838;2023-09-12T07:38:06;75.95;;;40.95;;
39370;SDS011;25099;51.946;4.838;2023-09-12T07:40:31;64.30;;;39.03;;
39370;SDS011;25099;51.946;4.838;2023-09-12T07:42:57;83.38;;;43.05;;
39370;SDS011;25099;51.946;4.838;2023-09-12T07:45:23;80.65;;;42.97;;
39370;SDS011;25099;51.946;4.838;2023-09-12T07:47:48;77.50;;;42.00;;
39370;SDS011;25099;51.946;4.838;2023-09-12T07:50:14;74.97;;;42.25;;
39370;SDS011;25099;51.946;4.838;2023-09-12T07:52:40;72.70;;;41.80;;
39370;SDS011;25099;51.946;4.838;2023-09-12T07:55:06;73.38;;;42.90;;
39370;SDS011;25099;51.946;4.838;2023-09-12T07:57:33;77.45;;;43.25;;
39370;SDS011;25099;51.946;4.838;2023-09-12T07:59:59;72.40;;;43.90;;
39370;SDS011;25099;51.946;4.838;2023-09-12T08:02:28;79.70;;;45.42;;
39370;SDS011;25099;51.946;4.838;2023-09-12T08:04:54;80.63;;;45.72;;
39370;SDS011;25099;51.946;4.838;2023-09-12T08:07:19;76.82;;;44.95;;
39370;SDS011;25099;51.946;4.838;2023-09-12T08:12:19;70.53;;;43.30;;
39370;SDS011;25099;51.946;4.838;2023-09-12T08:14:46;75.05;;;44.00;;
39370;SDS011;25099;51.946;4.838;2023-09-12T08:17:12;72.72;;;42.20;;
39370;SDS011;25099;51.946;4.838;2023-09-12T08:19:38;73.35;;;42.15;;
39370;SDS011;25099;51.946;4.838;2023-09-12T08:22:05;72.65;;;41.83;;
39370;SDS011;25099;51.946;4.838;2023-09-12T08:24:32;62.50;;;40.20;;
39370;SDS011;25099;51.946;4.838;2023-09-12T08:26:58;70.43;;;41.47;;
39370;SDS011;25099;51.946;4.838;2023-09-12T08:29:24;69.13;;;41.92;;
39370;SDS011;25099;51.946;4.838;2023-09-12T08:31:50;61.55;;;38.78;;
39370;SDS011;25099;51.946;4.838;2023-09-12T08:34:15;69.00;;;41.95;;
39370;SDS011;25099;51.946;4.838;2023-09-12T08:36:41;69.93;;;41.45;;
39370;SDS011;25099;51.946;4.838;2023-09-12T08:39:11;69.63;;;41.33;;
39370;SDS011;25099;51.946;4.838;2023-09-12T08:41:39;61.08;;;38.40;;
39370;SDS011;25099;51.946;4.838;2023-09-12T08:44:05;66.32;;;40.55;;
39370;SDS011;25099;51.946;4.838;2023-09-12T08:46:32;60.30;;;39.80;;
39370;SDS011;25099;51.946;4.838;2023-09-12T08:48:57;64.60;;;39.55;;
39370;SDS011;25099;51.946;4.838;2023-09-12T08:51:23;59.40;;;39.95;;
39370;SDS011;25099;51.946;4.838;2023-09-12T08:53:52;58.30;;;38.35;;
39370;SDS011;25099;51.946;4.838;2023-09-12T08:56:18;61.90;;;41.33;;
39370;SDS011;25099;51.946;4.838;2023-09-12T08:58:44;60.42;;;39.22;;
39370;SDS011;25099;51.946;4.838;2023-09-12T09:01:13;72.00;;;40.42;;
39370;SDS011;25099;51.946;4.838;2023-09-12T09:06:08;57.60;;;39.58;;
39370;SDS011;25099;51.946;4.838;2023-09-12T09:08:35;61.33;;;40.00;;
39370;SDS011;25099;51.946;4.838;2023-09-12T09:11:01;62.28;;;38.25;;
39370;SDS011;25099;51.946;4.838;2023-09-12T09:13:28;59.63;;;39.63;;
39370;SDS011;25099;51.946;4.838;2023-09-12T09:18:52;60.33;;;40.00;;
39370;SDS011;25099;51.946;4.838;2023-09-12T09:23:50;62.97;;;39.25;;
39370;SDS011;25099;51.946;4.838;2023-09-12T09:26:19;63.40;;;39.00;;
39370;SDS011;25099;51.946;4.838;2023-09-12T09:28:45;54.60;;;36.97;;
39370;SDS011;25099;51.946;4.838;2023-09-12T09:31:25;59.67;;;40.17;;
39370;SDS011;25099;51.946;4.838;2023-09-12T09:33:50;50.80;;;35.85;;
39370;SDS011;25099;51.946;4.838;2023-09-12T09:36:17;57.90;;;37.25;;
39370;SDS011;25099;51.946;4.838;2023-09-12T09:38:42;55.42;;;35.40;;
39370;SDS011;25099;51.946;4.838;2023-09-12T09:41:08;54.85;;;35.60;;
39370;SDS011;25099;51.946;4.838;2023-09-12T09:43:34;58.05;;;38.20;;
39370;SDS011;25099;51.946;4.838;2023-09-12T09:46:00;55.20;;;37.03;;
39370;SDS011;25099;51.946;4.838;2023-09-12T09:48:26;56.08;;;38.13;;
39370;SDS011;25099;51.946;4.838;2023-09-12T09:50:52;56.22;;;38.08;;
39370;SDS011;25099;51.946;4.838;2023-09-12T09:53:31;58.75;;;39.08;;
39370;SDS011;25099;51.946;4.838;2023-09-12T09:56:07;61.00;;;40.58;;
39370;SDS011;25099;51.946;4.838;2023-09-12T09:58:35;58.10;;;39.60;;
39370;SDS011;25099;51.946;4.838;2023-09-12T10:01:01;56.72;;;38.80;;
39370;SDS011;25099;51.946;4.838;2023-09-12T10:03:31;58.35;;;38.72;;
39370;SDS011;25099;51.946;4.838;2023-09-12T10:06:00;51.35;;;38.03;;
39370;SDS011;25099;51.946;4.838;2023-09-12T10:08:29;59.33;;;38.25;;
39370;SDS011;25099;51.946;4.838;2023-09-12T10:10:57;59.78;;;39.10;;
39370;SDS011;25099;51.946;4.838;2023-09-12T10:13:24;57.55;;;38.03;;
39370;SDS011;25099;51.946;4.838;2023-09-12T10:15:56;53.55;;;38.03;;
39370;SDS011;25099;51.946;4.838;2023-09-12T10:18:23;52.30;;;38.63;;
39370;SDS011;25099;51.946;4.838;2023-09-12T10:20:55;55.10;;;36.95;;
39370;SDS011;25099;51.946;4.838;2023-09-12T10:23:29;40.28;;;31.80;;
39370;SDS011;25099;51.946;4.838;2023-09-12T10:26:01;53.33;;;38.35;;
39370;SDS011;25099;51.946;4.838;2023-09-12T10:28:28;50.05;;;37.25;;
39370;SDS011;25099;51.946;4.838;2023-09-12T10:30:53;50.40;;;37.38;;
39370;SDS011;25099;51.946;4.838;2023-09-12T10:33:20;60.10;;;41.40;;
39370;SDS011;25099;51.946;4.838;2023-09-12T10:35:46;54.30;;;38.60;;
39370;SDS011;25099;51.946;4.838;2023-09-12T10:38:12;59.05;;;37.85;;
39370;SDS011;25099;51.946;4.838;2023-09-12T10:40:41;47.42;;;33.65;;
39370;SDS011;25099;51.946;4.838;2023-09-12T10:43:08;47.13;;;33.88;;
39370;SDS011;25099;51.946;4.838;2023-09-12T10:45:35;51.67;;;36.25;;
39370;SDS011;25099;51.946;4.838;2023-09-12T10:48:04;50.60;;;35.22;;
39370;SDS011;25099;51.946;4.838;2023-09-12T10:50:29;45.60;;;33.83;;
39370;SDS011;25099;51.946;4.838;2023-09-12T10:52:56;54.92;;;38.63;;
39370;SDS011;25099;51.946;4.838;2023-09-12T10:55:32;51.05;;;37.00;;
39370;SDS011;25099;51.946;4.838;2023-09-12T10:58:02;55.92;;;40.55;;
39370;SDS011;25099;51.946;4.838;2023-09-12T11:00:29;54.13;;;37.80;;
39370;SDS011;25099;51.946;4.838;2023-09-12T11:02:57;58.50;;;40.42;;
39370;SDS011;25099;51.946;4.838;2023-09-12T11:07:57;54.20;;;38.33;;
39370;SDS011;25099;51.946;4.838;2023-09-12T11:10:24;48.22;;;37.63;;
39370;SDS011;25099;51.946;4.838;2023-09-12T11:12:51;49.95;;;37.85;;
39370;SDS011;25099;51.946;4.838;2023-09-12T11:15:18;50.92;;;34.78;;
39370;SDS011;25099;51.946;4.838;2023-09-12T11:17:49;48.15;;;35.35;;
39370;SDS011;25099;51.946;4.838;2023-09-12T11:20:24;50.08;;;36.25;;
39370;SDS011;25099;51.946;4.838;2023-09-12T11:22:49;42.15;;;31.13;;
39370;SDS011;25099;51.946;4.838;2023-09-12T11:25:17;42.25;;;30.90;;
39370;SDS011;25099;51.946;4.838;2023-09-12T11:30:16;31.65;;;26.13;;
39370;SDS011;25099;51.946;4.838;2023-09-12T11:32:44;35.00;;;25.55;;
39370;SDS011;25099;51.946;4.838;2023-09-12T11:35:15;39.75;;;28.10;;
39370;SDS011;25099;51.946;4.838;2023-09-12T11:37:50;35.40;;;26.85;;
39370;SDS011;25099;51.946;4.838;2023-09-12T11:40:22;36.83;;;26.95;;
39370;SDS011;25099;51.946;4.838;2023-09-12T11:43:06;42.10;;;29.35;;
39370;SDS011;25099;51.946;4.838;2023-09-12T11:45:33;39.85;;;30.48;;
39370;SDS011;25099;51.946;4.838;2023-09-12T11:48:00;40.65;;;30.27;;
39370;SDS011;25099;51.946;4.838;2023-09-12T11:53:01;44.05;;;32.65;;
39370;SDS011;25099;51.946;4.838;2023-09-12T11:55:30;43.40;;;31.60;;
39370;SDS011;25099;51.946;4.838;2023-09-12T11:57:56;44.72;;;33.15;;
39370;SDS011;25099;51.946;4.838;2023-09-12T12:00:22;39.72;;;30.73;;
39370;SDS011;25099;51.946;4.838;2023-09-12T12:02:50;40.90;;;30.42;;
39370;SDS011;25099;51.946;4.838;2023-09-12T12:05:16;45.72;;;31.98;;
39370;SDS011;25099;51.946;4.838;2023-09-12T12:07:41;54.75;;;33.90;;
39370;SDS011;25099;51.946;4.838;2023-09-12T12:10:07;44.67;;;33.38;;
39370;SDS011;25099;51.946;4.838;2023-09-12T12:12:33;42.00;;;32.00;;
39370;SDS011;25099;51.946;4.838;2023-09-12T12:14:59;44.20;;;32.15;;
39370;SDS011;25099;51.946;4.838;2023-09-12T12:17:24;42.42;;;32.63;;
39370;SDS011;25099;51.946;4.838;2023-09-12T12:19:50;46.47;;;35.35;;
39370;SDS011;25099;51.946;4.838;2023-09-12T12:22:15;49.72;;;34.67;;
39370;SDS011;25099;51.946;4.838;2023-09-12T12:24:43;46.00;;;32.50;;
39370;SDS011;25099;51.946;4.838;2023-09-12T12:27:10;47.53;;;34.40;;
39370;SDS011;25099;51.946;4.838;2023-09-12T12:29:36;42.15;;;30.95;;
39370;SDS011;25099;51.946;4.838;2023-09-12T12:32:04;40.28;;;30.92;;
39370;SDS011;25099;51.946;4.838;2023-09-12T12:34:30;42.88;;;31.77;;
39370;SDS011;25099;51.946;4.838;2023-09-12T12:36:56;38.97;;;28.95;;
39370;SDS011;25099;51.946;4.838;2023-09-12T12:39:22;38.50;;;28.10;;
39370;SDS011;25099;51.946;4.838;2023-09-12T12:41:49;43.92;;;32.13;;
39370;SDS011;25099;51.946;4.838;2023-09-12T12:44:20;41.70;;;29.80;;
39370;SDS011;25099;51.946;4.838;2023-09-12T12:46:50;35.53;;;26.52;;
39370;SDS011;25099;51.946;4.838;2023-09-12T12:49:19;41.85;;;31.00;;
39370;SDS011;25099;51.946;4.838;2023-09-12T12:51:46;37.20;;;28.23;;
39370;SDS011;25099;51.946;4.838;2023-09-12T12:54:12;35.20;;;27.52;;
39370;SDS011;25099;51.946;4.838;2023-09-12T12:56:38;39.45;;;28.33;;
39370;SDS011;25099;51.946;4.838;2023-09-12T12:59:04;40.03;;;28.75;;
39370;SDS011;25099;51.946;4.838;2023-09-12T13:01:33;45.33;;;30.77;;
39370;SDS011;25099;51.946;4.838;2023-09-12T13:04:00;40.40;;;28.48;;
39370;SDS011;25099;51.946;4.838;2023-09-12T13:06:26;40.85;;;28.88;;
39370;SDS011;25099;51.946;4.838;2023-09-12T13:08:53;18.10;;;14.32;;
39370;SDS011;25099;51.946;4.838;2023-09-12T13:11:19;12.65;;;11.38;;
39370;SDS011;25099;51.946;4.838;2023-09-12T13:13:47;19.10;;;15.70;;
39370;SDS011;25099;51.946;4.838;2023-09-12T13:16:16;23.08;;;17.13;;
39370;SDS011;25099;51.946;4.838;2023-09-12T13:18:41;19.25;;;15.63;;
39370;SDS011;25099;51.946;4.838;2023-09-12T13:21:07;13.85;;;12.45;;
39370;SDS011;25099;51.946;4.838;2023-09-12T13:23:33;14.13;;;12.60;;
39370;SDS011;25099;51.946;4.838;2023-09-12T13:26:00;19.95;;;14.05;;
39370;SDS011;25099;51.946;4.838;2023-09-12T13:28:26;15.07;;;13.45;;
39370;SDS011;25099;51.946;4.838;2023-09-12T13:30:52;14.95;;;13.38;;
39370;SDS011;25099;51.946;4.838;2023-09-12T13:33:18;15.63;;;13.68;;
39370;SDS011;25099;51.946;4.838;2023-09-12T13:35:44;14.77;;;13.15;;
39370;SDS011;25099;51.946;4.838;2023-09-12T13:38:09;17.63;;;12.98;;
39370;SDS011;25099;51.946;4.838;2023-09-12T13:40:37;18.23;;;14.07;;
39370;SDS011;25099;51.946;4.838;2023-09-12T13:43:03;20.40;;;15.27;;
39370;SDS011;25099;51.946;4.838;2023-09-12T13:45:29;20.05;;;15.93;;
39370;SDS011;25099;51.946;4.838;2023-09-12T13:47:55;19.88;;;16.48;;
39370;SDS011;25099;51.946;4.838;2023-09-12T13:50:22;23.30;;;18.75;;
39370;SDS011;25099;51.946;4.838;2023-09-12T13:52:48;20.23;;;16.08;;
39370;SDS011;25099;51.946;4.838;2023-09-12T13:55:14;24.80;;;18.95;;
39370;SDS011;25099;51.946;4.838;2023-09-12T13:57:42;20.70;;;16.73;;
39370;SDS011;25099;51.946;4.838;2023-09-12T14:00:08;17.38;;;15.10;;
39370;SDS011;25099;51.946;4.838;2023-09-12T14:02:33;19.02;;;16.42;;
39370;SDS011;25099;51.946;4.838;2023-09-12T14:04:59;18.05;;;16.10;;
39370;SDS011;25099;51.946;4.838;2023-09-12T14:07:25;20.60;;;16.30;;
39370;SDS011;25099;51.946;4.838;2023-09-12T14:09:51;25.48;;;19.90;;
39370;SDS011;25099;51.946;4.838;2023-09-12T14:12:20;24.00;;;18.30;;
39370;SDS011;25099;51.946;4.838;2023-09-12T14:17:17;24.27;;;18.08;;
39370;SDS011;25099;51.946;4.838;2023-09-12T14:19:43;27.00;;;19.40;;
39370;SDS011;25099;51.946;4.838;2023-09-12T14:22:08;26.98;;;19.77;;
39370;SDS011;25099;51.946;4.838;2023-09-12T14:24:34;24.25;;;18.60;;
39370;SDS011;25099;51.946;4.838;2023-09-12T14:27:00;26.05;;;18.75;;
39370;SDS011;25099;51.946;4.838;2023-09-12T14:29:25;34.47;;;20.88;;
39370;SDS011;25099;51.946;4.838;2023-09-12T14:31:54;29.30;;;21.30;;
39370;SDS011;25099;51.946;4.838;2023-09-12T14:34:28;22.85;;;19.27;;
39370;SDS011;25099;51.946;4.838;2023-09-12T14:36:56;22.95;;;16.70;;
39370;SDS011;25099;51.946;4.838;2023-09-12T14:39:23;20.67;;;17.35;;
39370;SDS011;25099;51.946;4.838;2023-09-12T14:41:49;18.08;;;16.20;;